Time;durP1;ratioP1;P1;durP2;ratioP2;P2;SDS_P1;SDS_P2;PMS_P1;PMS_P2;Temp;Humidity;BMP_temperature;BMP_pressure;BME280_temperature;BME280_humidity;BME280_pressure;Samples;Min_cycle;Max_cycle;Signal;HPM_P1;HPM_P2
2021/11/06 00:00:40;;;;;;;48.50;25.33;;;8.50;99.90;;;;;;5065314;28;20405;-75
2021/11/06 00:03:06;;;;;;;48.92;25.55;;;8.50;99.90;;;;;;5058098;28;20025;-75
2021/11/06 00:05:33;;;;;;;52.10;26.00;;;8.60;99.90;;;;;;5053574;28;20068;-76
2021/11/06 00:07:58;;;;;;;39.20;24.40;;;8.60;99.90;;;;;;5069977;28;20020;-77
2021/11/06 00:10:24;;;;;;;60.28;30.15;;;8.50;99.90;;;;;;5059319;28;20044;-75
2021/11/06 00:12:50;;;;;;;39.08;25.20;;;8.50;99.90;;;;;;5068856;28;20028;-75
2021/11/06 00:15:17;;;;;;;43.50;24.58;;;8.50;99.90;;;;;;5057236;28;20116;-75
2021/11/06 00:17:43;;;;;;;52.67;27.77;;;8.50;99.90;;;;;;5036239;28;20021;-75
2021/11/06 00:20:11;;;;;;;50.22;26.73;;;8.40;99.90;;;;;;5069127;28;20033;-77
2021/11/06 00:22:37;;;;;;;48.65;25.98;;;8.50;99.90;;;;;;5049128;28;20013;-75
2021/11/06 00:25:04;;;;;;;44.40;23.55;;;8.50;99.90;;;;;;5032005;28;20053;-75
2021/11/06 00:27:29;;;;;;;39.67;22.48;;;8.50;99.90;;;;;;5033208;28;20049;-75
2021/11/06 00:29:56;;;;;;;46.25;23.75;;;8.50;99.90;;;;;;5065818;28;20476;-75
2021/11/06 00:32:22;;;;;;;41.50;23.38;;;8.50;99.90;;;;;;5058829;28;20020;-75
2021/11/06 00:34:47;;;;;;;35.35;21.23;;;8.50;99.90;;;;;;5065823;28;20056;-76
2021/11/06 00:37:13;;;;;;;43.67;24.58;;;8.40;99.90;;;;;;5059995;28;20107;-75
2021/11/06 00:39:39;;;;;;;40.47;21.85;;;8.40;99.90;;;;;;5068979;28;20024;-74
2021/11/06 00:42:05;;;;;;;38.10;23.17;;;8.40;99.90;;;;;;5056400;28;20567;-75
2021/11/06 00:44:31;;;;;;;37.30;22.90;;;8.40;99.90;;;;;;5064218;28;20029;-75
2021/11/06 00:46:57;;;;;;;39.08;21.38;;;8.40;99.90;;;;;;5054565;28;20028;-75
2021/11/06 00:49:23;;;;;;;38.50;21.58;;;8.40;99.90;;;;;;5066554;28;20044;-76
2021/11/06 00:51:49;;;;;;;42.25;20.95;;;8.30;99.90;;;;;;5056252;28;20102;-76
2021/11/06 00:54:15;;;;;;;31.42;19.90;;;8.30;99.90;;;;;;5042569;28;20052;-76
2021/11/06 00:56:41;;;;;;;35.72;20.38;;;8.20;99.90;;;;;;5061046;28;20024;-75
2021/11/06 00:59:06;;;;;;;41.50;21.35;;;8.30;99.90;;;;;;5043608;28;20029;-75
2021/11/06 01:01:32;;;;;;;38.95;23.20;;;8.30;99.90;;;;;;5052417;28;20032;-76
2021/11/06 01:03:58;;;;;;;40.42;22.73;;;8.20;99.90;;;;;;5068824;28;20021;-75
2021/11/06 01:06:24;;;;;;;44.17;23.33;;;8.20;99.90;;;;;;5066360;28;20021;-76
2021/11/06 01:08:50;;;;;;;42.05;22.40;;;8.20;99.90;;;;;;5060524;28;20365;-75
2021/11/06 01:11:16;;;;;;;40.10;23.13;;;8.20;99.90;;;;;;5059216;28;20065;-75
2021/11/06 01:13:42;;;;;;;44.17;22.75;;;8.10;99.90;;;;;;5068721;28;20066;-75
2021/11/06 01:16:08;;;;;;;38.88;22.33;;;8.10;99.90;;;;;;5049320;28;20022;-75
2021/11/06 01:18:34;;;;;;;35.75;21.98;;;8.10;99.90;;;;;;5055264;28;20108;-75
2021/11/06 01:21:00;;;;;;;37.80;20.98;;;8.10;99.90;;;;;;5061280;28;20108;-75
2021/11/06 01:23:26;;;;;;;35.35;21.55;;;8.10;99.90;;;;;;5040612;28;20087;-75
2021/11/06 01:25:52;;;;;;;41.90;21.63;;;8.00;99.90;;;;;;5066541;28;20386;-75
2021/11/06 01:28:17;;;;;;;37.13;20.58;;;8.00;99.90;;;;;;5045676;28;20025;-75
2021/11/06 01:30:43;;;;;;;42.85;23.35;;;8.00;99.90;;;;;;5045690;28;20044;-76
2021/11/06 01:33:09;;;;;;;35.05;19.23;;;8.10;99.90;;;;;;5051210;28;20045;-75
2021/11/06 01:35:34;;;;;;;37.22;19.27;;;8.10;99.90;;;;;;5050522;28;20029;-75
2021/11/06 01:38:01;;;;;;;37.83;19.70;;;8.00;99.90;;;;;;5052586;28;20025;-75
2021/11/06 01:40:28;;;;;;;32.72;21.13;;;8.00;99.90;;;;;;5046251;28;20492;-75
2021/11/06 01:42:54;;;;;;;40.55;21.70;;;8.00;99.90;;;;;;5041404;28;20039;-76
2021/11/06 01:45:22;;;;;;;33.55;20.65;;;8.00;99.90;;;;;;5039992;28;20381;-75
2021/11/06 01:47:48;;;;;;;39.28;19.48;;;8.00;99.90;;;;;;5042346;28;20025;-75
2021/11/06 01:50:16;;;;;;;35.15;20.27;;;8.00;99.90;;;;;;5039509;28;20029;-77
2021/11/06 01:52:42;;;;;;;42.00;21.48;;;8.00;99.90;;;;;;5041342;28;20013;-78
2021/11/06 01:55:09;;;;;;;38.03;20.83;;;7.90;99.90;;;;;;5042708;28;20389;-75
2021/11/06 01:57:35;;;;;;;31.67;19.55;;;8.00;99.90;;;;;;5040140;28;20029;-75
2021/11/06 02:00:04;;;;;;;36.78;20.77;;;8.00;99.90;;;;;;5039780;28;20083;-75
2021/11/06 02:02:31;;;;;;;29.05;17.70;;;7.90;99.90;;;;;;5042782;28;20029;-75
2021/11/06 02:04:56;;;;;;;32.75;17.63;;;7.90;99.90;;;;;;5041018;28;20021;-75
2021/11/06 02:07:22;;;;;;;35.10;19.38;;;7.90;99.90;;;;;;5042103;28;20409;-75
2021/11/06 02:09:47;;;;;;;34.28;20.35;;;7.90;99.90;;;;;;5039499;28;20355;-77
2021/11/06 02:12:13;;;;;;;31.75;19.92;;;7.90;99.90;;;;;;5040376;28;20461;-76
2021/11/06 02:14:39;;;;;;;35.05;19.85;;;7.80;99.90;;;;;;5041547;28;20020;-75
2021/11/06 02:17:05;;;;;;;38.63;20.25;;;7.90;99.90;;;;;;5042018;28;20044;-75
2021/11/06 02:19:31;;;;;;;35.42;19.23;;;7.80;99.90;;;;;;5038425;28;20026;-76
2021/11/06 02:21:59;;;;;;;32.35;17.10;;;7.80;99.90;;;;;;5043161;28;20033;-75
2021/11/06 02:24:26;;;;;;;33.45;17.98;;;7.80;99.90;;;;;;5041157;28;20029;-75
2021/11/06 02:26:53;;;;;;;29.92;18.00;;;7.70;99.90;;;;;;5039478;28;20040;-76
2021/11/06 02:29:19;;;;;;;33.13;19.33;;;7.70;99.90;;;;;;5041474;28;20036;-76
2021/11/06 02:31:44;;;;;;;34.38;18.48;;;7.70;99.90;;;;;;5042171;28;20032;-75
2021/11/06 02:34:10;;;;;;;30.67;16.95;;;7.70;99.90;;;;;;5046303;28;20469;-75
2021/11/06 02:36:36;;;;;;;33.53;18.52;;;7.70;99.90;;;;;;5053248;28;20021;-75
2021/11/06 02:39:03;;;;;;;34.05;16.45;;;7.70;99.90;;;;;;5055870;28;20024;-75
2021/11/06 02:41:29;;;;;;;36.03;16.08;;;7.70;99.90;;;;;;5055560;28;20040;-75
2021/11/06 02:44:05;;;;;;;32.40;16.30;;;7.70;99.90;;;;;;5053551;28;20037;-75
2021/11/06 02:46:31;;;;;;;31.83;15.50;;;7.60;99.90;;;;;;5050223;28;20087;-75
2021/11/06 02:48:56;;;;;;;29.17;16.40;;;7.70;99.90;;;;;;5042767;28;20025;-75
2021/11/06 02:51:22;;;;;;;32.13;16.38;;;7.60;99.90;;;;;;5055598;28;20549;-75
2021/11/06 02:53:48;;;;;;;23.85;15.23;;;7.60;99.90;;;;;;5039551;28;20022;-75
2021/11/06 02:56:13;;;;;;;26.67;15.20;;;7.70;99.90;;;;;;5045303;28;20028;-75
2021/11/06 02:58:39;;;;;;;32.28;17.30;;;7.60;99.90;;;;;;5055058;28;20040;-76
2021/11/06 03:01:04;;;;;;;25.83;14.40;;;7.60;99.90;;;;;;5054055;28;20370;-75
2021/11/06 03:03:30;;;;;;;29.65;15.38;;;7.60;99.90;;;;;;5055264;28;20040;-75
2021/11/06 03:05:56;;;;;;;28.08;16.52;;;7.60;99.90;;;;;;5055140;28;20048;-75
2021/11/06 03:08:21;;;;;;;28.80;15.90;;;7.60;99.90;;;;;;5055241;28;20108;-75
2021/11/06 03:10:47;;;;;;;30.33;15.05;;;7.60;99.90;;;;;;5054908;28;20053;-75
2021/11/06 03:13:13;;;;;;;30.67;16.48;;;7.60;99.90;;;;;;5050037;28;20025;-75
2021/11/06 03:15:39;;;;;;;26.23;15.98;;;7.50;99.90;;;;;;5035277;28;20025;-75
2021/11/06 03:18:04;;;;;;;34.63;19.15;;;7.40;99.90;;;;;;5035083;28;20549;-75
2021/11/06 03:20:32;;;;;;;31.45;17.15;;;7.50;99.90;;;;;;5045006;28;20116;-75
2021/11/06 03:22:58;;;;;;;30.27;16.55;;;7.50;99.90;;;;;;5045779;28;20041;-75
2021/11/06 03:25:27;;;;;;;31.08;17.55;;;7.50;99.90;;;;;;5034508;28;20029;-75
2021/11/06 03:27:54;;;;;;;28.63;16.15;;;7.50;99.90;;;;;;5035049;28;20029;-75
2021/11/06 03:30:19;;;;;;;34.75;18.70;;;7.40;99.90;;;;;;5043120;28;20040;-75
2021/11/06 03:32:45;;;;;;;30.80;17.20;;;7.40;99.90;;;;;;5052160;28;20117;-75
2021/11/06 03:35:11;;;;;;;32.33;16.95;;;7.40;99.90;;;;;;5054367;28;20102;-75
2021/11/06 03:37:38;;;;;;;32.38;17.40;;;7.40;99.90;;;;;;5053725;28;20021;-75
2021/11/06 03:40:05;;;;;;;32.45;16.77;;;7.40;99.90;;;;;;5051079;28;20033;-75
2021/11/06 03:42:31;;;;;;;30.90;16.58;;;7.30;99.90;;;;;;5034614;28;20024;-76
2021/11/06 03:44:56;;;;;;;31.30;16.67;;;7.30;99.90;;;;;;5050975;28;20029;-75
2021/11/06 03:47:22;;;;;;;33.22;16.58;;;7.30;99.90;;;;;;5051243;28;20025;-75
2021/11/06 03:49:48;;;;;;;31.35;16.02;;;7.30;99.90;;;;;;5054565;28;20063;-76
2021/11/06 03:52:14;;;;;;;29.40;16.23;;;7.30;99.90;;;;;;5054724;28;20020;-75
2021/11/06 03:54:42;;;;;;;34.22;17.33;;;7.40;99.90;;;;;;5045187;28;20046;-75
2021/11/06 03:57:08;;;;;;;35.20;18.35;;;7.30;99.90;;;;;;5034803;28;20148;-75
2021/11/06 03:59:33;;;;;;;31.98;16.50;;;7.40;99.90;;;;;;5034365;28;20100;-75
2021/11/06 04:01:59;;;;;;;33.33;16.60;;;7.40;99.90;;;;;;5041307;28;20043;-75
2021/11/06 04:04:25;;;;;;;33.83;18.02;;;7.30;99.90;;;;;;5054200;28;20021;-77
2021/11/06 04:06:51;;;;;;;35.65;18.95;;;7.30;99.90;;;;;;5054003;28;20104;-74
2021/11/06 04:09:16;;;;;;;35.63;17.08;;;7.30;99.90;;;;;;5053633;28;20021;-74
2021/11/06 04:11:42;;;;;;;35.85;17.27;;;7.20;99.90;;;;;;5034438;28;20030;-75
2021/11/06 04:14:08;;;;;;;33.22;18.05;;;7.30;99.90;;;;;;5032935;28;20155;-75
2021/11/06 04:16:33;;;;;;;34.22;18.83;;;7.30;99.90;;;;;;5035265;28;20030;-75
2021/11/06 04:18:59;;;;;;;29.38;17.63;;;7.30;99.90;;;;;;5052348;28;20029;-75
2021/11/06 04:21:25;;;;;;;32.40;18.83;;;7.20;99.90;;;;;;5052970;28;20021;-75
2021/11/06 04:23:50;;;;;;;31.75;18.80;;;7.30;99.90;;;;;;5053718;28;20100;-75
2021/11/06 04:26:16;;;;;;;36.78;19.35;;;7.30;99.90;;;;;;5053518;28;20029;-75
2021/11/06 04:28:42;;;;;;;32.38;17.70;;;7.30;99.90;;;;;;5053637;28;20040;-75
2021/11/06 04:31:07;;;;;;;35.55;18.38;;;7.30;99.90;;;;;;5052168;28;20037;-75
2021/11/06 04:33:33;;;;;;;33.80;18.25;;;7.20;99.90;;;;;;5052884;28;20029;-75
2021/11/06 04:35:59;;;;;;;32.35;18.48;;;7.20;99.90;;;;;;5053579;28;20039;-75
2021/11/06 04:38:24;;;;;;;29.20;16.40;;;7.20;99.90;;;;;;5053446;28;20113;-75
2021/11/06 04:40:50;;;;;;;33.45;18.33;;;7.20;99.90;;;;;;5034774;28;20498;-75
2021/11/06 04:43:16;;;;;;;34.30;18.40;;;7.20;99.90;;;;;;5050937;28;20044;-75
2021/11/06 04:45:42;;;;;;;29.95;17.58;;;7.20;99.90;;;;;;5049364;28;20385;-75
2021/11/06 04:48:08;;;;;;;37.63;18.30;;;7.20;99.90;;;;;;5033273;28;20104;-75
2021/11/06 04:50:34;;;;;;;37.28;19.17;;;7.20;99.90;;;;;;5042755;28;20033;-75
2021/11/06 04:52:59;;;;;;;33.80;17.98;;;7.20;99.90;;;;;;5053614;28;20121;-75
2021/11/06 04:55:25;;;;;;;38.45;22.75;;;7.10;99.90;;;;;;5053140;28;20036;-75
2021/11/06 04:57:51;;;;;;;32.42;17.92;;;7.10;99.90;;;;;;5053202;28;20534;-75
2021/11/06 05:00:17;;;;;;;42.15;19.52;;;7.10;99.90;;;;;;5053432;28;20082;-75
2021/11/06 05:02:44;;;;;;;31.50;18.92;;;7.10;99.90;;;;;;5053326;28;20655;-76
2021/11/06 05:05:09;;;;;;;41.47;19.40;;;7.10;99.90;;;;;;5053025;28;20405;-75
2021/11/06 05:07:35;;;;;;;33.20;19.00;;;7.10;99.90;;;;;;5053285;28;20029;-75
2021/11/06 05:10:02;;;;;;;37.65;18.95;;;7.10;99.90;;;;;;5046901;28;20025;-75
2021/11/06 05:12:28;;;;;;;30.80;17.95;;;7.10;99.90;;;;;;5037199;28;20074;-75
2021/11/06 05:14:53;;;;;;;32.35;18.80;;;7.10;99.90;;;;;;5053286;28;20025;-75
2021/11/06 05:17:19;;;;;;;35.58;18.73;;;7.00;99.90;;;;;;5048254;28;20516;-75
2021/11/06 05:19:48;;;;;;;39.88;19.70;;;7.00;99.90;;;;;;5032973;28;20033;-75
2021/11/06 05:22:14;;;;;;;35.05;18.85;;;7.10;99.90;;;;;;5031911;28;20022;-75
2021/11/06 05:24:40;;;;;;;45.95;20.95;;;7.00;99.90;;;;;;5033223;28;20028;-75
2021/11/06 05:27:06;;;;;;;40.45;18.85;;;7.00;99.90;;;;;;5031299;28;20026;-75
2021/11/06 05:29:32;;;;;;;40.63;19.65;;;7.00;99.90;;;;;;5032981;28;20037;-75
2021/11/06 05:31:58;;;;;;;37.22;18.63;;;7.00;99.90;;;;;;5041424;28;20074;-75
2021/11/06 05:34:24;;;;;;;41.28;18.30;;;7.10;99.90;;;;;;5051153;28;20009;-75
2021/11/06 05:36:50;;;;;;;38.08;17.52;;;7.00;99.90;;;;;;5052644;28;20425;-75
2021/11/06 05:39:16;;;;;;;45.47;20.33;;;7.00;99.90;;;;;;5051307;28;20040;-75
2021/11/06 05:41:42;;;;;;;38.85;18.33;;;7.00;99.90;;;;;;5052646;28;20033;-75
2021/11/06 05:44:07;;;;;;;37.08;18.25;;;6.90;99.90;;;;;;5052276;28;20404;-74
2021/11/06 05:46:33;;;;;;;39.15;18.88;;;6.90;99.90;;;;;;5052611;28;20470;-75
2021/11/06 05:48:59;;;;;;;38.15;17.85;;;6.90;99.90;;;;;;5052194;28;20033;-76
2021/11/06 05:51:24;;;;;;;34.75;17.52;;;7.00;99.90;;;;;;5051788;28;20029;-75
2021/11/06 05:53:51;;;;;;;40.50;19.52;;;7.00;99.90;;;;;;5052893;28;20066;-75
2021/11/06 05:56:19;;;;;;;33.30;16.92;;;7.10;99.90;;;;;;5052207;28;20026;-75
2021/11/06 05:58:45;;;;;;;36.67;17.85;;;7.10;99.90;;;;;;5036777;28;20512;-75
2021/11/06 06:01:10;;;;;;;33.10;16.40;;;7.00;99.90;;;;;;5032456;28;20083;-75
2021/11/06 06:03:36;;;;;;;38.67;17.75;;;7.00;99.90;;;;;;5042973;28;20501;-75
2021/11/06 06:06:02;;;;;;;35.03;18.08;;;7.00;99.90;;;;;;5051433;28;20028;-75
2021/11/06 06:08:28;;;;;;;29.83;15.63;;;7.00;99.90;;;;;;5037212;28;20026;-75
2021/11/06 06:10:54;;;;;;;34.03;16.98;;;7.10;99.90;;;;;;5032666;28;20041;-75
2021/11/06 06:13:20;;;;;;;35.50;18.70;;;7.20;99.90;;;;;;5047074;28;20040;-75
2021/11/06 06:15:46;;;;;;;33.55;16.27;;;7.10;99.90;;;;;;5055709;28;20473;-75
2021/11/06 06:18:11;;;;;;;33.55;16.63;;;7.10;99.90;;;;;;5055719;28;20025;-75
2021/11/06 06:20:37;;;;;;;38.17;17.80;;;7.00;99.90;;;;;;5055553;28;20437;-74
2021/11/06 06:23:04;;;;;;;35.17;16.35;;;7.10;99.90;;;;;;5037481;28;20072;-75
2021/11/06 06:25:30;;;;;;;34.97;18.02;;;7.10;99.90;;;;;;5036264;28;20516;-74
2021/11/06 06:27:56;;;;;;;33.15;16.42;;;7.10;99.90;;;;;;5044264;28;20033;-75
2021/11/06 06:30:21;;;;;;;33.97;16.42;;;7.10;99.90;;;;;;5055809;28;20044;-75
2021/11/06 06:32:47;;;;;;;32.25;16.80;;;7.10;99.90;;;;;;5055366;28;20017;-75
2021/11/06 06:35:15;;;;;;;37.30;17.27;;;7.10;99.90;;;;;;5056024;28;20032;-75
2021/11/06 06:37:40;;;;;;;35.65;17.95;;;7.10;99.90;;;;;;5054913;28;20495;-74
2021/11/06 06:40:08;;;;;;;32.85;17.33;;;7.00;99.90;;;;;;5055790;28;20107;-75
2021/11/06 06:42:34;;;;;;;37.67;17.55;;;7.10;99.90;;;;;;5054827;28;20083;-75
2021/11/06 06:44:59;;;;;;;38.42;16.30;;;7.10;99.90;;;;;;5056029;28;20029;-75
2021/11/06 06:47:25;;;;;;;30.42;17.35;;;7.10;99.90;;;;;;5052833;28;20389;-74
2021/11/06 06:49:51;;;;;;;29.23;16.85;;;7.10;99.90;;;;;;5055710;28;20036;-75
2021/11/06 06:52:17;;;;;;;36.88;16.58;;;7.10;99.90;;;;;;5055724;28;20487;-74
2021/11/06 06:54:43;;;;;;;31.30;16.98;;;7.10;99.90;;;;;;5055552;28;20028;-75
2021/11/06 06:57:09;;;;;;;34.97;16.23;;;7.10;99.90;;;;;;5052401;28;20013;-75
2021/11/06 06:59:36;;;;;;;31.70;15.98;;;7.20;99.90;;;;;;5035766;28;20033;-74
2021/11/06 07:02:03;;;;;;;30.52;16.98;;;7.20;99.90;;;;;;5035477;28;20033;-75
2021/11/06 07:04:29;;;;;;;28.85;15.57;;;7.20;99.90;;;;;;5035664;28;20105;-75
2021/11/06 07:06:55;;;;;;;25.40;13.88;;;7.20;99.90;;;;;;5054481;28;20091;-75
2021/11/06 07:09:21;;;;;;;38.83;16.20;;;7.20;99.90;;;;;;5055022;28;20029;-75
2021/11/06 07:11:48;;;;;;;27.20;14.95;;;7.30;99.90;;;;;;5054129;28;20124;-76
2021/11/06 07:14:16;;;;;;;31.98;17.52;;;7.30;99.90;;;;;;5055249;28;20440;-75
2021/11/06 07:16:44;;;;;;;28.65;16.25;;;7.30;99.90;;;;;;5051114;28;20029;-74
2021/11/06 07:19:11;;;;;;;27.02;16.20;;;7.30;99.90;;;;;;5035285;28;20113;-75
2021/11/06 07:21:36;;;;;;;31.05;15.60;;;7.30;99.90;;;;;;5035397;28;20057;-75
2021/11/06 07:24:02;;;;;;;27.30;13.73;;;7.40;99.90;;;;;;5046256;28;20055;-74
2021/11/06 07:26:28;;;;;;;26.77;13.23;;;7.50;99.90;;;;;;5055317;28;20449;-74
2021/11/06 07:28:54;;;;;;;26.73;14.85;;;7.50;99.90;;;;;;5040438;28;20080;-75
2021/11/06 07:31:21;;;;;;;27.25;13.55;;;7.60;99.90;;;;;;5033425;28;20042;-75
2021/11/06 07:33:48;;;;;;;28.48;14.60;;;7.60;99.90;;;;;;5042080;28;20032;-75
2021/11/06 07:36:14;;;;;;;28.80;15.20;;;7.60;99.90;;;;;;5053804;28;20381;-74
2021/11/06 07:38:40;;;;;;;27.50;15.35;;;7.60;99.90;;;;;;5054580;28;20045;-74
2021/11/06 07:41:06;;;;;;;26.58;14.40;;;7.70;99.90;;;;;;5053641;28;20025;-74
2021/11/06 07:43:33;;;;;;;25.45;13.73;;;7.60;99.90;;;;;;5054587;28;20580;-74
2021/11/06 07:45:59;;;;;;;26.35;13.95;;;7.70;99.90;;;;;;5054661;28;20028;-74
2021/11/06 07:48:25;;;;;;;24.02;14.18;;;7.80;99.90;;;;;;5053361;28;20025;-73
2021/11/06 07:50:50;;;;;;;24.88;14.45;;;7.80;99.90;;;;;;5054747;28;20041;-74
2021/11/06 07:53:16;;;;;;;27.25;13.95;;;7.90;99.90;;;;;;5041390;28;20017;-75
2021/11/06 07:55:42;;;;;;;24.67;13.55;;;7.80;99.90;;;;;;5034730;28;20030;-74
2021/11/06 07:58:09;;;;;;;22.70;13.02;;;8.00;99.90;;;;;;5041743;28;20013;-74
2021/11/06 08:00:36;;;;;;;24.25;11.88;;;7.90;99.90;;;;;;5034346;28;20030;-74
2021/11/06 08:03:02;;;;;;;20.65;11.65;;;7.90;99.90;;;;;;5047677;28;20009;-74
2021/11/06 08:05:28;;;;;;;20.23;11.95;;;7.90;99.90;;;;;;5054358;28;20071;-74
2021/11/06 08:07:54;;;;;;;27.42;12.75;;;7.90;99.90;;;;;;5046653;28;20116;-74
2021/11/06 08:10:19;;;;;;;18.35;12.07;;;7.90;99.90;;;;;;5034275;28;20048;-75
2021/11/06 08:12:45;;;;;;;20.05;12.25;;;8.00;99.90;;;;;;5033872;28;20033;-74
2021/11/06 08:15:14;;;;;;;22.45;11.30;;;8.00;99.90;;;;;;5032266;28;20049;-75
2021/11/06 08:17:40;;;;;;;25.00;12.25;;;8.00;99.90;;;;;;5034241;28;20051;-74
2021/11/06 08:20:07;;;;;;;24.95;11.50;;;8.00;99.90;;;;;;5034022;28;20029;-74
2021/11/06 08:22:33;;;;;;;19.73;11.20;;;8.00;99.90;;;;;;5034066;28;20022;-74
2021/11/06 08:25:00;;;;;;;18.90;9.82;;;8.00;99.90;;;;;;5032571;28;20022;-75
2021/11/06 08:27:26;;;;;;;22.15;11.32;;;8.10;99.90;;;;;;5034116;28;20044;-74
2021/11/06 08:29:52;;;;;;;16.85;10.30;;;8.10;99.90;;;;;;5051837;28;20480;-75
2021/11/06 08:32:17;;;;;;;19.35;10.63;;;8.20;99.90;;;;;;5053911;28;20465;-74
2021/11/06 08:34:43;;;;;;;20.33;11.82;;;8.20;99.90;;;;;;5048873;28;20455;-74
2021/11/06 08:37:09;;;;;;;19.65;10.65;;;8.20;99.90;;;;;;5051356;28;20062;-74
2021/11/06 08:39:35;;;;;;;18.40;9.95;;;8.20;99.90;;;;;;5050964;28;20477;-74
2021/11/06 08:42:01;;;;;;;19.95;10.50;;;8.20;99.90;;;;;;5052359;28;20391;-74
2021/11/06 08:44:26;;;;;;;12.38;8.60;;;8.30;99.90;;;;;;5047446;28;20488;-74
2021/11/06 08:46:54;;;;;;;16.63;10.40;;;8.30;99.90;;;;;;5051478;28;20025;-75
2021/11/06 08:49:21;;;;;;;16.88;10.15;;;8.40;99.90;;;;;;5054086;28;20064;-73
2021/11/06 08:51:48;;;;;;;22.20;10.48;;;8.30;99.90;;;;;;5043809;28;20053;-74
2021/11/06 08:54:16;;;;;;;19.48;9.73;;;8.40;99.90;;;;;;5049382;28;20025;-74
2021/11/06 08:56:42;;;;;;;15.52;10.00;;;8.40;99.90;;;;;;5050608;28;20098;-74
2021/11/06 08:59:10;;;;;;;16.33;9.35;;;8.40;99.90;;;;;;5047047;28;20099;-75
2021/11/06 09:01:36;;;;;;;18.45;10.40;;;8.40;99.90;;;;;;5047609;28;20024;-74
2021/11/06 09:04:01;;;;;;;16.92;8.93;;;8.50;99.90;;;;;;5047764;28;20044;-74
2021/11/06 09:06:27;;;;;;;17.25;9.73;;;8.60;99.90;;;;;;5053218;28;20108;-76
2021/11/06 09:08:53;;;;;;;18.45;10.85;;;8.70;99.90;;;;;;5047917;28;20032;-75
2021/11/06 09:11:19;;;;;;;17.95;8.77;;;8.70;99.90;;;;;;5047232;28;20029;-75
2021/11/06 09:13:54;;;;;;;16.30;8.88;;;8.90;99.90;;;;;;5050527;28;20059;-76
2021/11/06 09:16:20;;;;;;;18.15;9.32;;;8.90;99.90;;;;;;5046294;28;20022;-74
2021/11/06 09:18:46;;;;;;;12.68;8.98;;;9.00;99.90;;;;;;5048409;28;20078;-76
2021/11/06 09:21:14;;;;;;;15.20;9.13;;;9.10;99.90;;;;;;5052456;28;20481;-76
2021/11/06 09:23:41;;;;;;;15.27;9.07;;;9.00;99.90;;;;;;5053966;28;20469;-76
2021/11/06 09:26:10;;;;;;;14.15;8.75;;;9.20;99.90;;;;;;5052986;28;20052;-75
2021/11/06 09:28:40;;;;;;;11.02;7.90;;;9.20;99.90;;;;;;5042106;28;20037;-74
2021/11/06 09:31:08;;;;;;;15.60;7.75;;;9.30;99.90;;;;;;5050112;28;20036;-76
2021/11/06 09:33:34;;;;;;;14.93;8.10;;;9.30;99.90;;;;;;5050686;28;20071;-75
2021/11/06 09:35:59;;;;;;;13.82;7.93;;;9.30;99.90;;;;;;5051296;28;20492;-74
2021/11/06 09:38:25;;;;;;;14.02;8.02;;;9.40;99.90;;;;;;5050734;28;20120;-74
2021/11/06 09:40:50;;;;;;;12.75;7.97;;;9.50;99.90;;;;;;5054926;28;20477;-75
2021/11/06 09:43:16;;;;;;;13.43;7.82;;;9.60;99.90;;;;;;5048155;28;20025;-74
2021/11/06 09:45:45;;;;;;;14.95;8.07;;;9.70;99.90;;;;;;5052344;28;20025;-75
2021/11/06 09:48:12;;;;;;;13.25;7.68;;;9.70;99.90;;;;;;5057401;28;20095;-74
2021/11/06 09:50:38;;;;;;;11.25;7.10;;;9.60;99.90;;;;;;5053330;28;20029;-76
2021/11/06 09:53:03;;;;;;;11.05;7.00;;;9.70;99.90;;;;;;5060700;28;20035;-75
2021/11/06 09:55:31;;;;;;;12.52;6.75;;;9.70;99.90;;;;;;5055072;28;20037;-75
2021/11/06 09:57:57;;;;;;;11.00;6.88;;;9.70;99.90;;;;;;5050211;28;20021;-76
2021/11/06 10:00:24;;;;;;;13.27;7.32;;;9.70;99.90;;;;;;5049335;28;20030;-75
2021/11/06 10:02:54;;;;;;;14.32;7.03;;;9.80;99.90;;;;;;5056106;28;20020;-74
2021/11/06 10:05:50;;;;;;;11.55;6.93;;;9.80;99.90;;;;;;5054397;28;20013;-74
2021/11/06 10:08:34;;;;;;;12.45;6.53;;;9.80;99.90;;;;;;5046900;28;20474;-75
2021/11/06 10:11:11;;;;;;;9.05;6.00;;;9.80;99.90;;;;;;5050910;28;20025;-75
2021/11/06 10:13:51;;;;;;;10.60;5.97;;;9.80;99.90;;;;;;5051612;28;20142;-75
2021/11/06 10:16:50;;;;;;;12.30;6.35;;;9.90;99.90;;;;;;5052634;28;20032;-73
2021/11/06 10:19:18;;;;;;;12.25;6.53;;;10.00;99.90;;;;;;5072957;28;20033;-74
2021/11/06 10:22:06;;;;;;;14.27;6.53;;;10.10;99.90;;;;;;5049923;28;20024;-74
2021/11/06 10:24:42;;;;;;;8.77;6.25;;;10.00;99.90;;;;;;5054057;28;20025;-76
2021/11/06 10:27:15;;;;;;;13.20;6.97;;;10.10;99.90;;;;;;5050624;28;20096;-74
2021/11/06 10:29:42;;;;;;;8.43;5.88;;;10.10;99.90;;;;;;5052014;28;20094;-74
2021/11/06 10:32:08;;;;;;;19.83;6.82;;;10.20;99.90;;;;;;5053359;28;20452;-74
2021/11/06 10:34:36;;;;;;;9.25;5.97;;;10.10;99.90;;;;;;5054850;28;20060;-76
2021/11/06 10:37:12;;;;;;;8.10;6.07;;;10.10;99.90;;;;;;5049873;28;20009;-74
2021/11/06 10:39:59;;;;;;;10.60;6.32;;;10.10;99.90;;;;;;5057000;28;20455;-76
2021/11/06 10:42:26;;;;;;;10.00;6.70;;;10.10;99.90;;;;;;5055891;28;20380;-74
2021/11/06 10:45:11;;;;;;;10.20;6.03;;;10.10;99.90;;;;;;5050495;28;20087;-75
2021/11/06 10:47:55;;;;;;;11.15;5.65;;;10.10;99.90;;;;;;5052687;28;20028;-76
2021/11/06 10:50:45;;;;;;;11.30;5.43;;;10.10;99.90;;;;;;5048643;28;20155;-74
2021/11/06 10:53:15;;;;;;;12.02;6.57;;;10.30;99.90;;;;;;5052553;28;20029;-76
2021/11/06 10:55:43;;;;;;;11.68;6.07;;;10.50;99.90;;;;;;5050654;28;20478;-76
2021/11/06 10:58:29;;;;;;;14.13;6.30;;;10.60;99.90;;;;;;5046560;28;20104;-76
2021/11/06 11:01:08;;;;;;;10.77;5.68;;;10.70;99.90;;;;;;5041114;28;20033;-75
2021/11/06 11:03:39;;;;;;;11.65;5.75;;;10.80;99.90;;;;;;5032193;28;20021;-76
2021/11/06 11:06:28;;;;;;;11.95;6.05;;;10.80;99.90;;;;;;5052008;28;20013;-77
2021/11/06 11:08:56;;;;;;;10.73;6.25;;;10.80;99.90;;;;;;5049745;28;20029;-76
2021/11/06 11:11:25;;;;;;;9.55;6.13;;;10.80;99.90;;;;;;5059459;28;20061;-76
2021/11/06 11:13:56;;;;;;;9.32;6.22;;;10.80;99.90;;;;;;5052717;28;20018;-75
2021/11/06 11:16:23;;;;;;;12.45;6.95;;;10.80;99.90;;;;;;5048175;28;20394;-77
2021/11/06 11:18:55;;;;;;;11.48;6.13;;;10.80;99.90;;;;;;5055741;28;20024;-76
2021/11/06 11:21:21;;;;;;;7.80;5.50;;;10.90;99.90;;;;;;5050680;28;20029;-76
2021/11/06 11:24:08;;;;;;;10.00;5.88;;;11.00;99.90;;;;;;5052543;28;20036;-76
2021/11/06 11:26:37;;;;;;;13.05;6.53;;;11.00;99.90;;;;;;5052090;28;20090;-77
2021/11/06 11:29:05;;;;;;;15.80;6.43;;;11.00;99.90;;;;;;5055651;28;20124;-76
2021/11/06 11:31:32;;;;;;;10.00;5.43;;;11.10;99.90;;;;;;5063018;28;20021;-76
2021/11/06 11:33:58;;;;;;;27.67;21.20;;;11.10;99.90;;;;;;5054892;28;20045;-76
2021/11/06 11:36:27;;;;;;;7.57;5.50;;;11.20;99.90;;;;;;5052937;28;20040;-75
2021/11/06 11:38:56;;;;;;;9.63;5.88;;;11.20;99.90;;;;;;5054288;28;20040;-77
2021/11/06 11:41:21;;;;;;;10.32;5.80;;;11.20;99.90;;;;;;5054587;28;20028;-77
2021/11/06 11:44:12;;;;;;;10.02;5.95;;;11.30;99.90;;;;;;5064207;28;20017;-77
2021/11/06 11:46:48;;;;;;;11.75;6.63;;;11.30;99.90;;;;;;5053958;28;20035;-74
2021/11/06 11:49:14;;;;;;;9.10;6.72;;;11.40;99.90;;;;;;5053219;28;20013;-77
2021/11/06 11:51:40;;;;;;;11.13;5.55;;;11.40;99.90;;;;;;5050741;28;20104;-76
2021/11/06 11:54:09;;;;;;;10.05;5.82;;;11.30;99.90;;;;;;5046043;28;20115;-75
2021/11/06 11:56:36;;;;;;;9.80;5.53;;;11.40;99.90;;;;;;5052107;28;20030;-77
2021/11/06 11:59:04;;;;;;;11.60;5.32;;;11.30;99.90;;;;;;5052282;28;20024;-76
2021/11/06 12:01:30;;;;;;;9.80;5.63;;;11.40;99.90;;;;;;5055988;28;20019;-74
2021/11/06 12:03:58;;;;;;;8.30;5.10;;;11.40;99.90;;;;;;5052317;28;20033;-74
2021/11/06 12:06:33;;;;;;;8.05;6.00;;;11.40;99.90;;;;;;5051787;28;20117;-75
2021/11/06 12:09:11;;;;;;;11.27;6.28;;;11.30;99.90;;;;;;5053126;28;20067;-76
2021/11/06 12:11:57;;;;;;;12.32;6.30;;;11.40;99.90;;;;;;5051781;28;20488;-76
2021/11/06 12:14:28;;;;;;;11.73;6.55;;;11.40;99.90;;;;;;5056707;28;20025;-77
2021/11/06 12:17:05;;;;;;;10.43;5.43;;;11.40;99.90;;;;;;5054001;28;20477;-76
2021/11/06 12:19:35;;;;;;;10.88;8.30;;;11.40;99.90;;;;;;5057742;28;20044;-76
2021/11/06 12:22:08;;;;;;;7.07;4.95;;;11.40;99.90;;;;;;5045337;28;20075;-76
2021/11/06 12:24:34;;;;;;;8.02;5.40;;;11.40;99.90;;;;;;5053355;28;20040;-75
2021/11/06 12:27:04;;;;;;;6.95;5.10;;;11.50;99.90;;;;;;5051816;28;20422;-76
2021/11/06 12:29:36;;;;;;;8.18;5.28;;;11.50;99.90;;;;;;5052234;28;20032;-75
2021/11/06 12:32:18;;;;;;;7.78;5.88;;;11.50;99.90;;;;;;5049532;28;20056;-74
2021/11/06 12:34:52;;;;;;;11.10;5.03;;;11.50;99.90;;;;;;5052129;28;20052;-74
2021/11/06 12:37:37;;;;;;;9.18;5.50;;;11.50;99.90;;;;;;5053780;28;20021;-76
2021/11/06 12:40:18;;;;;;;10.60;6.82;;;11.50;99.90;;;;;;5046791;28;20096;-76